Disclaimer

Please do not use the information listed here in-flight or in-navigation, as they are not provided to us by the airports but are provided by volunteers, so they might be outdated.

Search


Regions


Airport information page

No radio frequency information is available.

Airport informations:
Latitude: 24° 44' 39.51" N
Longitude: 084° 57' 04.23" E
Elevation: 380 feet - 116 meters
Operating hours: Remarks
Operating agency: Civil government, landing fees and diplomatic clearance may be required
Timezone: UTC+5:30
Fuel: Unknown fuel type or whether there is any fuel.

Runway information:
10/28 - 7500 x 148 feet< - >2286 x 45 meters

Recent METARs:
VEGY 180700Z 33006KT 3500 HZ NSC 28/11 Q1015 NOSIG
VEGY 180800Z 26008KT 3500 HZ NSC 29/11 Q1014 NOSIG
VEGY 180800Z 26008KT 3500 HZ NSC 29/11 Q1014 NOSIG

Airport on the map: